createdAt,value
2017-09-10T00:00:03.090Z,0
2017-09-10T00:01:12.689Z,0
2017-09-10T00:02:21.350Z,0
2017-09-10T00:03:30.339Z,0
2017-09-10T00:04:39.312Z,0
2017-09-10T00:05:48.613Z,0
2017-09-10T00:06:58.561Z,0
2017-09-10T00:08:07.515Z,0
2017-09-10T00:09:16.483Z,0
2017-09-10T00:10:25.140Z,0
2017-09-10T00:11:34.114Z,0
2017-09-10T00:12:43.720Z,0
2017-09-10T00:13:53.014Z,0
2017-09-10T00:15:01.979Z,0
2017-09-10T00:16:10.959Z,0
2017-09-10T00:17:19.928Z,0
2017-09-10T00:18:29.213Z,0
2017-09-10T00:19:38.482Z,0
2017-09-10T00:20:47.459Z,0
2017-09-10T00:21:56.112Z,0
2017-09-10T00:23:05.411Z,0
2017-09-10T00:24:15.018Z,0
2017-09-10T00:25:23.677Z,0
2017-09-10T00:26:32.340Z,0
2017-09-10T00:27:41.946Z,0
2017-09-10T00:28:51.256Z,0
2017-09-10T00:29:59.922Z,0
2017-09-10T00:31:08.916Z,0
2017-09-10T00:32:17.885Z,0
2017-09-10T00:33:26.854Z,0
2017-09-10T00:34:35.509Z,0
2017-09-10T00:35:44.806Z,0
2017-09-10T00:36:54.406Z,0
2017-09-10T00:38:03.364Z,0
2017-09-10T00:39:12.327Z,0
2017-09-10T00:40:20.972Z,0
2017-09-10T00:41:30.325Z,0
2017-09-10T00:42:39.299Z,0
2017-09-10T00:43:48.271Z,0
2017-09-10T00:44:57.240Z,0
2017-09-10T00:46:06.204Z,0
2017-09-10T00:47:15.493Z,0
2017-09-10T00:48:24.473Z,0
2017-09-10T00:49:34.087Z,0
2017-09-10T00:50:43.074Z,0
2017-09-10T00:51:52.682Z,0
2017-09-10T00:53:01.642Z,0
2017-09-10T00:54:11.233Z,0
2017-09-10T00:55:20.515Z,0
2017-09-10T00:56:29.798Z,0
2017-09-10T00:57:38.771Z,0
2017-09-10T00:58:47.428Z,0
2017-09-10T00:59:56.401Z,0
2017-09-10T01:01:05.699Z,0
2017-09-10T01:02:14.677Z,0
2017-09-10T01:03:24.271Z,0
2017-09-10T01:04:33.254Z,0
2017-09-10T01:05:42.859Z,0
2017-09-10T01:06:52.164Z,0
2017-09-10T01:08:01.130Z,0
2017-09-10T01:09:10.434Z,0
2017-09-10T01:10:19.092Z,0
2017-09-10T01:11:28.374Z,0
2017-09-10T01:12:37.342Z,0
2017-09-10T01:13:46.047Z,0
2017-09-10T01:14:55.355Z,0
2017-09-10T01:16:04.329Z,0
2017-09-10T01:17:13.296Z,0
2017-09-10T01:18:22.268Z,0
2017-09-10T01:19:31.237Z,0
2017-09-10T01:20:40.205Z,0
2017-09-10T01:21:49.170Z,0
2017-09-10T01:22:58.147Z,0
2017-09-10T01:24:07.121Z,0
2017-09-10T01:25:16.405Z,0
2017-09-10T01:26:25.701Z,0
2017-09-10T01:27:34.989Z,0
2017-09-10T01:28:44.592Z,0
2017-09-10T01:29:53.876Z,0
2017-09-10T01:31:02.843Z,0
2017-09-10T01:32:11.527Z,0
2017-09-10T01:33:20.821Z,0
2017-09-10T01:34:29.783Z,0
2017-09-10T01:35:38.767Z,0
2017-09-10T01:36:48.055Z,0
2017-09-10T01:37:57.351Z,0
2017-09-10T01:39:05.999Z,0
2017-09-10T01:40:14.999Z,0
2017-09-10T01:41:24.290Z,0
2017-09-10T01:42:32.977Z,0
2017-09-10T01:43:41.639Z,0
2017-09-10T01:44:50.931Z,0
2017-09-10T01:45:59.901Z,0
2017-09-10T01:47:08.869Z,0
2017-09-10T01:48:17.523Z,0
2017-09-10T01:49:26.486Z,0
2017-09-10T01:50:35.465Z,0
2017-09-10T01:51:44.434Z,0
2017-09-10T01:52:53.403Z,0
2017-09-10T01:54:02.685Z,0
2017-09-10T01:55:11.973Z,0
2017-09-10T01:56:21.893Z,0
2017-09-10T01:57:31.176Z,0
2017-09-10T01:58:40.460Z,0
2017-09-10T01:59:49.428Z,0
2017-09-10T02:00:58.859Z,0
2017-09-10T02:02:07.840Z,0
2017-09-10T02:03:16.814Z,0
2017-09-10T02:04:25.475Z,0
2017-09-10T02:05:34.828Z,0
2017-09-10T02:06:44.111Z,0
2017-09-10T02:07:53.076Z,0
2017-09-10T02:09:02.362Z,0
2017-09-10T02:10:11.071Z,0
2017-09-10T02:11:20.053Z,0
2017-09-10T02:12:28.714Z,0
2017-09-10T02:13:37.987Z,0
2017-09-10T02:14:46.955Z,0
2017-09-10T02:15:55.606Z,0
2017-09-10T02:17:04.261Z,0
2017-09-10T02:18:13.541Z,0
2017-09-10T02:19:22.852Z,0
2017-09-10T02:20:31.821Z,0
2017-09-10T02:21:40.793Z,0
2017-09-10T02:22:49.767Z,0
2017-09-10T02:23:58.752Z,0
2017-09-10T02:25:07.728Z,0
2017-09-10T02:26:16.716Z,0
2017-09-10T02:27:26.003Z,0
2017-09-10T02:28:34.985Z,0
2017-09-10T02:29:44.261Z,0
2017-09-10T02:30:52.923Z,0
2017-09-10T02:32:02.528Z,0
2017-09-10T02:33:11.505Z,0
2017-09-10T02:34:21.135Z,0
2017-09-10T02:35:29.783Z,0
2017-09-10T02:36:39.386Z,0
2017-09-10T02:37:49.017Z,0
2017-09-10T02:38:58.299Z,0
2017-09-10T02:40:07.280Z,0
2017-09-10T02:41:15.936Z,0
2017-09-10T02:42:24.897Z,0
2017-09-10T02:43:33.553Z,0
2017-09-10T02:44:42.212Z,0
2017-09-10T02:45:51.181Z,0
2017-09-10T02:47:00.160Z,0
2017-09-10T02:48:09.137Z,0
2017-09-10T02:49:18.446Z,0
2017-09-10T02:50:27.398Z,0
2017-09-10T02:51:36.692Z,0
2017-09-10T02:52:45.968Z,0
2017-09-10T02:53:55.569Z,0
2017-09-10T02:55:04.236Z,0
2017-09-10T02:56:13.548Z,0
2017-09-10T02:57:22.923Z,0
2017-09-10T02:58:31.890Z,0
2017-09-10T02:59:40.545Z,0
2017-09-10T03:00:50.146Z,0
2017-09-10T03:01:59.422Z,0
2017-09-10T03:03:08.704Z,0
2017-09-10T03:04:18.375Z,0
2017-09-10T03:05:27.701Z,0
2017-09-10T03:06:36.673Z,0
2017-09-10T03:07:46.277Z,0
2017-09-10T03:08:55.253Z,0
2017-09-10T03:10:03.896Z,0
2017-09-10T03:11:12.867Z,0
2017-09-10T03:12:22.154Z,0
2017-09-10T03:13:30.808Z,0
2017-09-10T03:14:39.779Z,0
2017-09-10T03:15:49.066Z,0
2017-09-10T03:16:58.037Z,0
2017-09-10T03:18:07.005Z,0
2017-09-10T03:19:16.296Z,0
2017-09-10T03:20:25.605Z,0
2017-09-10T03:21:34.261Z,0
2017-09-10T03:22:42.910Z,0
2017-09-10T03:23:52.196Z,0
2017-09-10T03:25:01.481Z,0
2017-09-10T03:26:10.454Z,0
2017-09-10T03:27:19.732Z,0
2017-09-10T03:28:28.702Z,0
2017-09-10T03:29:37.664Z,0
2017-09-10T03:30:46.316Z,0
2017-09-10T03:31:55.936Z,0
2017-09-10T03:33:05.541Z,0
2017-09-10T03:34:14.513Z,0
2017-09-10T03:35:24.127Z,0
2017-09-10T03:36:33.110Z,0
2017-09-10T03:37:41.762Z,0
2017-09-10T03:38:51.063Z,0
2017-09-10T03:39:59.730Z,0
2017-09-10T03:41:08.756Z,0
2017-09-10T03:42:18.056Z,0
2017-09-10T03:43:27.050Z,0
2017-09-10T03:44:36.021Z,0
2017-09-10T03:45:44.678Z,0
2017-09-10T03:46:53.649Z,0
2017-09-10T03:48:02.623Z,0
2017-09-10T03:49:11.587Z,0
2017-09-10T03:50:20.562Z,0
2017-09-10T03:51:29.539Z,0
2017-09-10T03:52:38.505Z,0
2017-09-10T03:53:47.165Z,0
2017-09-10T03:54:56.141Z,0
2017-09-10T03:56:05.747Z,0
2017-09-10T03:57:14.711Z,0
2017-09-10T03:58:23.673Z,0
2017-09-10T03:59:32.340Z,0
2017-09-10T04:00:41.940Z,0
2017-09-10T04:01:50.929Z,0
2017-09-10T04:03:00.216Z,0
2017-09-10T04:04:09.500Z,0
2017-09-10T04:05:18.786Z,0
2017-09-10T04:06:27.761Z,0
2017-09-10T04:07:37.052Z,0
2017-09-10T04:08:46.335Z,0
2017-09-10T04:09:54.988Z,0
2017-09-10T04:11:04.286Z,0
2017-09-10T04:12:13.244Z,0
2017-09-10T04:13:21.893Z,0
2017-09-10T04:14:31.175Z,0
2017-09-10T04:15:39.847Z,0
2017-09-10T04:16:48.496Z,0
2017-09-10T04:17:57.492Z,0
2017-09-10T04:19:06.800Z,0
2017-09-10T04:20:15.793Z,0
2017-09-10T04:21:25.404Z,0
2017-09-10T04:22:34.685Z,0
2017-09-10T04:23:43.347Z,0
2017-09-10T04:24:51.993Z,0
2017-09-10T04:26:01.294Z,0
2017-09-10T04:27:10.257Z,0
2017-09-10T04:28:19.229Z,0
2017-09-10T04:29:28.509Z,0
2017-09-10T04:30:37.797Z,0
2017-09-10T04:31:46.762Z,0
2017-09-10T04:32:56.038Z,0
2017-09-10T04:34:05.323Z,0
2017-09-10T04:35:14.296Z,0
2017-09-10T04:36:22.957Z,0
2017-09-10T04:37:31.925Z,0
2017-09-10T04:38:41.548Z,4
2017-09-10T04:39:50.830Z,4
2017-09-10T04:40:59.802Z,4
2017-09-10T04:42:08.770Z,4
2017-09-10T04:43:17.426Z,8
2017-09-10T04:44:26.082Z,8
2017-09-10T04:45:34.745Z,8
2017-09-10T04:46:43.716Z,8
2017-09-10T04:47:53.009Z,12
2017-09-10T04:49:01.658Z,12
2017-09-10T04:50:10.622Z,16
2017-09-10T04:51:19.591Z,16
2017-09-10T04:52:28.869Z,20
2017-09-10T04:53:38.144Z,24
2017-09-10T04:54:46.791Z,28
2017-09-10T04:55:55.762Z,32
2017-09-10T04:57:05.046Z,36
2017-09-10T04:58:13.700Z,40
2017-09-10T04:59:22.666Z,48
2017-09-10T05:00:31.959Z,56
2017-09-10T05:01:40.937Z,56
2017-09-10T05:02:50.223Z,60
2017-09-10T05:03:58.871Z,68
2017-09-10T05:05:08.169Z,76
2017-09-10T05:06:17.475Z,88
2017-09-10T05:07:26.436Z,96
2017-09-10T05:08:35.169Z,108
2017-09-10T05:09:44.453Z,116
2017-09-10T05:10:53.417Z,124
2017-09-10T05:12:02.397Z,128
2017-09-10T05:13:11.052Z,144
2017-09-10T05:14:20.021Z,152
2017-09-10T05:15:29.304Z,164
2017-09-10T05:16:38.263Z,176
2017-09-10T05:17:46.929Z,192
2017-09-10T05:18:56.202Z,208
2017-09-10T05:20:05.478Z,224
2017-09-10T05:21:15.091Z,240
2017-09-10T05:22:24.371Z,256
2017-09-10T05:23:33.661Z,268
2017-09-10T05:24:42.639Z,284
2017-09-10T05:25:51.630Z,316
2017-09-10T05:27:00.287Z,352
2017-09-10T05:28:08.945Z,372
2017-09-10T05:29:17.922Z,384
2017-09-10T05:30:27.205Z,396
2017-09-10T05:31:36.197Z,416
2017-09-10T05:32:44.859Z,432
2017-09-10T05:33:54.143Z,436
2017-09-10T05:35:03.109Z,444
2017-09-10T05:36:12.090Z,472
2017-09-10T05:37:21.391Z,496
2017-09-10T05:38:30.353Z,512
2017-09-10T05:39:39.328Z,524
2017-09-10T05:40:48.612Z,532
2017-09-10T05:41:57.649Z,544
2017-09-10T05:43:06.958Z,560
2017-09-10T05:44:15.935Z,580
2017-09-10T05:45:24.598Z,592
2017-09-10T05:46:34.201Z,568
2017-09-10T05:47:43.491Z,612
2017-09-10T05:48:52.148Z,644
2017-09-10T05:50:01.764Z,668
2017-09-10T05:51:11.045Z,684
2017-09-10T05:52:20.012Z,704
2017-09-10T05:53:29.643Z,720
2017-09-10T05:54:38.618Z,744
2017-09-10T05:55:47.908Z,760
2017-09-10T05:56:56.988Z,792
2017-09-10T05:58:06.016Z,812
2017-09-10T05:59:14.975Z,832
2017-09-10T06:00:23.932Z,832
2017-09-10T06:01:33.223Z,840
2017-09-10T06:02:42.205Z,836
2017-09-10T06:03:51.257Z,844
2017-09-10T06:05:01.181Z,852
2017-09-10T06:06:10.590Z,868
2017-09-10T06:07:20.073Z,880
2017-09-10T06:08:28.856Z,896
2017-09-10T06:09:37.540Z,924
2017-09-10T06:10:46.510Z,940
2017-09-10T06:11:55.496Z,952
2017-09-10T06:13:04.778Z,960
2017-09-10T06:14:14.107Z,964
2017-09-10T06:15:23.691Z,980
2017-09-10T06:16:33.020Z,996
2017-09-10T06:17:42.391Z,1008
2017-09-10T06:18:51.267Z,1012
2017-09-10T06:20:00.545Z,1012
2017-09-10T06:21:09.832Z,1020
2017-09-10T06:22:18.504Z,1024
2017-09-10T06:23:27.478Z,1032
2017-09-10T06:24:36.440Z,1044
2017-09-10T06:25:45.405Z,1048
2017-09-10T06:26:54.064Z,1052
2017-09-10T06:28:03.359Z,1056
2017-09-10T06:29:12.019Z,1060
2017-09-10T06:30:20.985Z,1068
2017-09-10T06:31:30.274Z,1080
2017-09-10T06:32:39.545Z,1084
2017-09-10T06:33:48.523Z,1092
2017-09-10T06:34:57.200Z,1100
2017-09-10T06:36:06.494Z,1108
2017-09-10T06:37:15.170Z,1112
2017-09-10T06:38:23.828Z,1120
2017-09-10T06:39:33.110Z,1132
2017-09-10T06:40:41.772Z,1144
2017-09-10T06:41:51.063Z,1152
2017-09-10T06:43:00.039Z,1156
2017-09-10T06:44:09.641Z,1160
2017-09-10T06:45:18.609Z,1164
2017-09-10T06:46:27.285Z,1176
2017-09-10T06:47:36.261Z,1184
2017-09-10T06:48:45.221Z,1192
2017-09-10T06:49:54.200Z,1196
2017-09-10T06:51:03.484Z,1204
2017-09-10T06:52:13.081Z,1208
2017-09-10T06:53:22.361Z,1216
2017-09-10T06:54:31.336Z,1224
2017-09-10T06:55:40.306Z,1232
2017-09-10T06:56:49.280Z,1236
2017-09-10T06:57:58.315Z,1240
2017-09-10T06:59:06.971Z,1240
2017-09-10T07:00:16.324Z,1240
2017-09-10T07:01:24.989Z,1248
2017-09-10T07:02:34.275Z,1248
2017-09-10T07:03:43.868Z,1252
2017-09-10T07:04:52.844Z,1252
2017-09-10T07:06:01.499Z,1252
2017-09-10T07:07:10.487Z,1260
2017-09-10T07:08:20.429Z,1260
2017-09-10T07:09:29.392Z,1264
2017-09-10T07:10:38.416Z,1272
2017-09-10T07:11:47.352Z,1280
2017-09-10T07:12:56.009Z,1284
2017-09-10T07:14:04.982Z,1288
2017-09-10T07:15:13.964Z,1300
2017-09-10T07:16:23.631Z,1308
2017-09-10T07:17:32.319Z,1320
2017-09-10T07:18:41.341Z,1324
2017-09-10T07:19:50.958Z,1332
2017-09-10T07:21:00.628Z,1344
2017-09-10T07:22:09.300Z,1360
2017-09-10T07:23:18.611Z,1376
2017-09-10T07:24:27.575Z,1388
2017-09-10T07:25:36.861Z,1392
2017-09-10T07:26:45.869Z,1396
2017-09-10T07:27:54.865Z,1404
2017-09-10T07:29:03.530Z,1408
2017-09-10T07:30:12.212Z,1420
2017-09-10T07:31:21.184Z,1428
2017-09-10T07:32:30.161Z,1436
2017-09-10T07:33:39.435Z,1448
2017-09-10T07:34:48.411Z,1456
2017-09-10T07:35:57.701Z,1464
2017-09-10T07:37:06.672Z,1476
2017-09-10T07:38:15.962Z,1480
2017-09-10T07:39:24.625Z,1484
2017-09-10T07:40:33.618Z,1492
2017-09-10T07:41:42.585Z,1500
2017-09-10T07:42:51.859Z,1500
2017-09-10T07:44:00.839Z,1496
2017-09-10T07:45:10.147Z,1496
2017-09-10T07:46:18.813Z,1496
2017-09-10T07:47:28.104Z,1496
2017-09-10T07:48:37.065Z,1496
2017-09-10T07:49:46.360Z,1496
2017-09-10T07:50:55.042Z,1492
2017-09-10T07:52:04.017Z,1496
2017-09-10T07:53:13.310Z,1504
2017-09-10T07:54:22.277Z,1500
2017-09-10T07:55:31.564Z,1496
2017-09-10T07:56:40.217Z,1492
2017-09-10T07:57:49.192Z,1492
2017-09-10T07:58:57.857Z,1492
2017-09-10T08:00:07.155Z,1500
2017-09-10T08:01:16.121Z,1500
2017-09-10T08:02:24.781Z,1504
2017-09-10T08:03:33.802Z,1508
2017-09-10T08:04:42.460Z,1512
2017-09-10T08:05:51.784Z,1512
2017-09-10T08:07:00.754Z,1504
2017-09-10T08:08:10.046Z,1500
2017-09-10T08:09:19.329Z,1496
2017-09-10T08:10:28.611Z,1484
2017-09-10T08:11:37.897Z,1484
2017-09-10T08:12:46.876Z,1472
2017-09-10T08:13:55.555Z,1468
2017-09-10T08:15:04.539Z,1460
2017-09-10T08:16:13.513Z,1456
2017-09-10T08:17:22.498Z,1448
2017-09-10T08:18:31.472Z,1436
2017-09-10T08:19:40.750Z,1424
2017-09-10T08:20:49.405Z,1412
2017-09-10T08:21:59.003Z,1400
2017-09-10T08:23:07.660Z,1388
2017-09-10T08:24:16.636Z,1380
2017-09-10T08:25:25.937Z,1372
2017-09-10T08:26:35.059Z,1368
2017-09-10T08:27:44.380Z,1368
2017-09-10T08:28:53.353Z,1376
2017-09-10T08:30:02.013Z,1372
2017-09-10T08:31:11.009Z,1364
2017-09-10T08:32:20.008Z,1356
2017-09-10T08:33:29.302Z,1352
2017-09-10T08:34:38.013Z,1344
2017-09-10T08:35:47.000Z,1332
2017-09-10T08:36:56.313Z,1324
2017-09-10T08:38:05.620Z,1332
2017-09-10T08:39:15.218Z,1344
2017-09-10T08:40:24.190Z,1340
2017-09-10T08:41:33.477Z,1324
2017-09-10T08:42:42.780Z,1312
2017-09-10T08:43:51.758Z,1304
2017-09-10T08:45:00.732Z,1288
2017-09-10T08:46:10.016Z,1292
2017-09-10T08:47:18.994Z,1284
2017-09-10T08:48:28.288Z,1276
2017-09-10T08:49:37.595Z,1284
2017-09-10T08:50:46.564Z,1296
2017-09-10T08:51:55.855Z,1788
2017-09-10T08:53:05.145Z,1940
2017-09-10T08:54:14.438Z,1988
2017-09-10T08:55:23.431Z,1704
2017-09-10T08:56:32.413Z,1408
2017-09-10T08:57:41.373Z,1388
2017-09-10T08:58:50.661Z,1524
2017-09-10T08:59:59.655Z,1348
2017-09-10T09:01:08.938Z,1504
2017-09-10T09:02:18.352Z,1396
2017-09-10T09:03:27.366Z,1344
2017-09-10T09:04:36.040Z,1284
2017-09-10T09:05:45.059Z,1292
2017-09-10T09:06:54.676Z,1344
2017-09-10T09:08:03.346Z,1288
2017-09-10T09:09:13.070Z,1504
2017-09-10T09:10:22.685Z,1348
2017-09-10T09:11:31.332Z,1360
2017-09-10T09:12:40.625Z,1344
2017-09-10T09:13:49.923Z,1284
2017-09-10T09:14:58.884Z,1860
2017-09-10T09:16:08.246Z,1788
2017-09-10T09:17:17.222Z,2464
2017-09-10T09:18:26.196Z,2608
2017-09-10T09:19:35.510Z,2980
2017-09-10T09:20:44.796Z,2632
2017-09-10T09:21:53.853Z,2416
2017-09-10T09:23:02.855Z,1820
2017-09-10T09:24:11.514Z,1488
2017-09-10T09:25:21.327Z,2588
2017-09-10T09:26:30.310Z,2952
2017-09-10T09:27:39.673Z,2568
2017-09-10T09:28:49.317Z,2588
2017-09-10T09:29:57.989Z,2580
2017-09-10T09:31:06.977Z,2220
2017-09-10T09:32:16.801Z,2624
2017-09-10T09:33:27.270Z,2788
2017-09-10T09:34:35.934Z,2160
2017-09-10T09:35:44.959Z,1752
2017-09-10T09:36:54.893Z,2092
2017-09-10T09:38:03.617Z,2836
2017-09-10T09:39:12.581Z,2828
2017-09-10T09:42:54.304Z,2556
2017-09-10T09:44:03.608Z,2848
2017-09-10T09:45:12.267Z,3092
2017-09-10T09:46:21.263Z,3340
2017-09-10T09:47:30.241Z,2424
2017-09-10T09:48:39.218Z,2172
2017-09-10T09:49:48.546Z,2324
2017-09-10T09:50:57.845Z,2852
2017-09-10T09:52:07.460Z,2912
2017-09-10T09:53:16.770Z,2716
2017-09-10T09:54:25.976Z,2776
2017-09-10T09:55:36.141Z,2704
2017-09-10T09:56:45.599Z,3012
2017-09-10T09:57:54.604Z,2860
2017-09-10T09:59:03.795Z,2176
2017-09-10T10:00:12.452Z,2040
2017-09-10T10:01:21.427Z,2272
2017-09-10T10:02:30.712Z,1456
2017-09-10T10:03:39.831Z,1300
2017-09-10T10:04:48.907Z,1284
2017-09-10T10:05:58.643Z,1304
2017-09-10T10:07:07.313Z,1972
2017-09-10T10:08:16.347Z,2200
2017-09-10T10:09:25.352Z,2392
2017-09-10T10:10:34.358Z,1932
2017-09-10T10:11:43.981Z,2136
2017-09-10T10:12:53.284Z,2208
2017-09-10T10:14:02.260Z,1532
2017-09-10T10:15:11.874Z,1388
2017-09-10T10:16:20.536Z,1392
2017-09-10T10:17:29.204Z,1572
2017-09-10T10:18:38.189Z,2324
2017-09-10T10:19:46.859Z,2288
2017-09-10T10:20:56.459Z,1856
2017-09-10T10:22:05.742Z,1664
2017-09-10T10:23:14.417Z,1764
2017-09-10T10:24:23.696Z,1564
2017-09-10T10:25:32.353Z,1928
2017-09-10T10:26:41.030Z,2076
2017-09-10T10:27:50.007Z,2352
2017-09-10T10:28:58.660Z,2096
2017-09-10T10:30:07.975Z,2244
2017-09-10T10:31:17.340Z,2212
2017-09-10T10:32:26.620Z,2684
2017-09-10T10:33:35.271Z,2736
2017-09-10T10:34:44.241Z,2416
2017-09-10T10:35:52.906Z,1716
2017-09-10T10:37:01.866Z,1616
2017-09-10T10:38:10.840Z,1920
2017-09-10T10:39:19.834Z,1864
2017-09-10T10:40:28.816Z,1780
2017-09-10T10:41:37.482Z,1708
2017-09-10T10:42:46.465Z,1648
2017-09-10T10:43:55.749Z,2200
2017-09-10T10:45:04.724Z,1988
2017-09-10T10:46:14.007Z,1368
2017-09-10T10:47:22.986Z,1192
2017-09-10T10:48:32.602Z,1184
2017-09-10T10:49:41.260Z,1200
2017-09-10T10:50:50.235Z,1328
2017-09-10T10:51:59.217Z,1124
2017-09-10T10:53:08.225Z,876
2017-09-10T10:54:17.516Z,980
2017-09-10T10:55:26.484Z,1112
2017-09-10T10:56:36.094Z,1404
2017-09-10T10:57:45.843Z,1208
2017-09-10T10:58:55.129Z,988
2017-09-10T11:00:03.791Z,948
2017-09-10T11:01:12.759Z,964
2017-09-10T11:02:21.417Z,1044
2017-09-10T11:03:30.405Z,1428
2017-09-10T11:04:39.692Z,1500
2017-09-10T11:05:48.354Z,1400
2017-09-10T11:06:57.322Z,2092
2017-09-10T11:08:06.300Z,1748
2017-09-10T11:09:15.922Z,1524
2017-09-10T11:10:24.582Z,1476
2017-09-10T11:11:33.871Z,1484
2017-09-10T11:12:42.845Z,1400
2017-09-10T11:13:51.819Z,1324
2017-09-10T11:15:00.496Z,1504
2017-09-10T11:16:09.160Z,1200
2017-09-10T11:17:17.813Z,1328
2017-09-10T11:18:27.092Z,1504
2017-09-10T11:19:36.690Z,2184
2017-09-10T11:20:45.668Z,2016
2017-09-10T11:21:54.623Z,1368
2017-09-10T11:23:03.596Z,1408
2017-09-10T11:24:13.232Z,1672
2017-09-10T11:25:22.224Z,2252
2017-09-10T11:26:30.900Z,2064
2017-09-10T11:27:39.887Z,2084
2017-09-10T11:28:48.546Z,2128
2017-09-10T11:29:57.841Z,2000
2017-09-10T11:31:07.462Z,1708
2017-09-10T11:32:16.751Z,1484
2017-09-10T11:33:26.351Z,1156
2017-09-10T11:34:35.640Z,1376
2017-09-10T11:36:18.126Z,2160
2017-09-10T11:37:27.098Z,2232
2017-09-10T11:38:36.367Z,2100
2017-09-10T11:39:45.674Z,1764
2017-09-10T11:40:54.635Z,2184
2017-09-10T11:42:03.304Z,2080
2017-09-10T11:43:11.951Z,2480
2017-09-10T11:44:20.918Z,2264
2017-09-10T11:45:29.889Z,1876
2017-09-10T11:46:39.826Z,2148
2017-09-10T11:47:48.792Z,2168
2017-09-10T11:48:57.763Z,1684
2017-09-10T11:50:07.365Z,1496
2017-09-10T11:51:16.346Z,2260
2017-09-10T11:52:25.320Z,2664
2017-09-10T11:53:34.594Z,2204
2017-09-10T11:54:44.182Z,2160
2017-09-10T11:55:53.153Z,2128
2017-09-10T11:57:02.132Z,2648
2017-09-10T11:58:11.115Z,2104
2017-09-10T11:59:20.389Z,1592
2017-09-10T12:00:29.379Z,1364
2017-09-10T12:01:38.332Z,1388
2017-09-10T12:02:47.615Z,1380
2017-09-10T12:03:56.699Z,1560
2017-09-10T12:05:05.359Z,1732
2017-09-10T12:06:14.345Z,1944
2017-09-10T12:07:23.654Z,2012
2017-09-10T12:08:33.322Z,1928
2017-09-10T12:09:42.299Z,1776
2017-09-10T12:10:51.611Z,2008
2017-09-10T12:12:00.900Z,1964
2017-09-10T12:13:09.870Z,1996
2017-09-10T12:14:18.544Z,1948
2017-09-10T12:15:27.531Z,1848
2017-09-10T12:16:36.487Z,1424
2017-09-10T12:17:45.793Z,1108
2017-09-10T12:18:55.088Z,956
2017-09-10T12:20:04.099Z,968
2017-09-10T12:21:13.063Z,996
2017-09-10T12:22:22.666Z,1120
2017-09-10T12:23:31.975Z,1116
2017-09-10T12:24:41.588Z,1056
2017-09-10T12:25:50.562Z,980
2017-09-10T12:26:59.540Z,1112
2017-09-10T12:28:08.511Z,1220
2017-09-10T12:29:17.164Z,1060
2017-09-10T12:30:25.817Z,920
2017-09-10T12:31:35.102Z,900
2017-09-10T12:32:43.755Z,948
2017-09-10T12:33:52.416Z,980
2017-09-10T12:35:01.709Z,1052
2017-09-10T12:36:10.680Z,1104
2017-09-10T12:37:19.963Z,1256
2017-09-10T12:38:28.931Z,1556
2017-09-10T12:39:37.896Z,1796
2017-09-10T12:40:47.199Z,1636
2017-09-10T12:41:55.854Z,1492
2017-09-10T12:43:05.135Z,1296
2017-09-10T12:44:14.091Z,1108
2017-09-10T12:45:23.374Z,1016
2017-09-10T12:46:32.965Z,1020
2017-09-10T12:47:41.641Z,996
2017-09-10T12:48:50.296Z,972
2017-09-10T12:49:59.926Z,788
2017-09-10T12:51:09.209Z,756
2017-09-10T12:52:18.166Z,932
2017-09-10T12:53:27.468Z,952
2017-09-10T12:54:36.440Z,972
2017-09-10T12:55:46.386Z,1624
2017-09-10T12:56:55.034Z,1640
2017-09-10T12:58:04.341Z,1568
2017-09-10T12:59:12.998Z,1612
2017-09-10T13:00:21.665Z,1560
2017-09-10T13:01:30.330Z,1372
2017-09-10T13:02:39.316Z,1264
2017-09-10T13:03:47.995Z,1224
2017-09-10T13:04:57.281Z,1068
2017-09-10T13:06:06.573Z,912
2017-09-10T13:07:15.859Z,944
2017-09-10T13:08:25.172Z,1160
2017-09-10T13:09:34.105Z,900
2017-09-10T13:10:43.107Z,980
2017-09-10T13:11:52.062Z,1292
2017-09-10T13:13:01.352Z,1256
2017-09-10T13:14:10.948Z,1576
2017-09-10T13:15:19.632Z,1676
2017-09-10T13:16:28.315Z,1352
2017-09-10T13:17:37.292Z,1344
2017-09-10T13:18:46.261Z,1728
2017-09-10T13:19:55.554Z,1824
2017-09-10T13:21:05.177Z,2052
2017-09-10T13:22:14.477Z,1928
2017-09-10T13:23:23.444Z,2084
2017-09-10T13:24:32.733Z,1848
2017-09-10T13:25:42.015Z,1848
2017-09-10T13:26:50.665Z,1516
2017-09-10T13:27:59.653Z,1172
2017-09-10T13:29:08.949Z,1372
2017-09-10T13:30:17.932Z,1648
2017-09-10T13:31:27.210Z,1756
2017-09-10T13:32:36.488Z,1916
2017-09-10T13:33:45.177Z,1788
2017-09-10T13:34:54.137Z,1800
2017-09-10T13:36:03.123Z,1612
2017-09-10T13:37:11.780Z,1580
2017-09-10T13:38:20.755Z,1452
2017-09-10T13:39:29.425Z,1216
2017-09-10T13:40:38.418Z,1184
2017-09-10T13:41:47.701Z,1204
2017-09-10T13:42:56.672Z,1256
2017-09-10T13:44:05.636Z,1048
2017-09-10T13:45:14.913Z,868
2017-09-10T13:46:23.608Z,836
2017-09-10T13:47:32.268Z,832
2017-09-10T13:48:41.239Z,836
2017-09-10T13:49:50.219Z,828
2017-09-10T13:50:59.493Z,912
2017-09-10T13:52:08.457Z,976
2017-09-10T13:53:17.119Z,1156
2017-09-10T13:54:26.393Z,1372
2017-09-10T13:55:35.394Z,1588
2017-09-10T13:56:44.697Z,1796
2017-09-10T13:57:53.408Z,1536
2017-09-10T13:59:02.356Z,1392
2017-09-10T14:00:11.015Z,1356
2017-09-10T14:01:19.976Z,1400
2017-09-10T14:02:28.984Z,1380
2017-09-10T14:03:37.666Z,1716
2017-09-10T14:04:46.945Z,1728
2017-09-10T14:05:55.601Z,1456
2017-09-10T14:07:05.207Z,1676
2017-09-10T14:08:14.510Z,1540
2017-09-10T14:09:23.161Z,1256
2017-09-10T14:10:32.441Z,1176
2017-09-10T14:11:41.742Z,1700
2017-09-10T14:12:51.675Z,1748
2017-09-10T14:14:00.766Z,1320
2017-09-10T14:15:09.429Z,1240
2017-09-10T14:16:19.100Z,1180
2017-09-10T14:17:28.756Z,1308
2017-09-10T14:18:37.431Z,1444
2017-09-10T14:19:47.184Z,1700
2017-09-10T14:20:56.580Z,1540
2017-09-10T14:22:05.695Z,1368
2017-09-10T14:23:15.641Z,1604
2017-09-10T14:24:25.584Z,1372
2017-09-10T14:25:34.328Z,1040
2017-09-10T14:26:43.626Z,1076
2017-09-10T14:27:52.293Z,880
2017-09-10T14:29:01.287Z,848
2017-09-10T14:30:10.576Z,808
2017-09-10T14:31:20.510Z,772
2017-09-10T14:32:29.796Z,748
2017-09-10T14:33:38.771Z,776
2017-09-10T14:34:48.068Z,840
2017-09-10T14:35:57.675Z,840
2017-09-10T14:37:07.586Z,776
2017-09-10T14:38:16.247Z,748
2017-09-10T14:39:25.850Z,568
2017-09-10T14:40:35.175Z,724
2017-09-10T14:41:44.218Z,724
2017-09-10T14:42:53.823Z,636
2017-09-10T14:44:02.497Z,568
2017-09-10T14:45:11.478Z,696
2017-09-10T14:46:20.760Z,752
2017-09-10T14:47:30.056Z,616
2017-09-10T14:48:39.079Z,720
2017-09-10T14:49:47.764Z,712
2017-09-10T14:50:57.044Z,728
2017-09-10T14:52:06.025Z,700
2017-09-10T14:53:14.987Z,624
2017-09-10T14:54:24.271Z,772
2017-09-10T14:55:33.005Z,624
2017-09-10T14:56:41.970Z,704
2017-09-10T14:57:50.622Z,848
2017-09-10T14:58:59.900Z,1176
2017-09-10T15:00:08.871Z,1088
2017-09-10T15:01:17.838Z,1204
2017-09-10T15:02:26.811Z,1276
2017-09-10T15:03:35.457Z,1148
2017-09-10T15:04:44.776Z,1308
2017-09-10T15:05:54.176Z,1400
2017-09-10T15:07:03.461Z,1292
2017-09-10T15:08:12.157Z,1164
2017-09-10T15:09:21.190Z,948
2017-09-10T15:10:30.523Z,772
2017-09-10T15:11:40.155Z,724
2017-09-10T15:12:48.824Z,716
2017-09-10T15:13:58.055Z,824
2017-09-10T15:15:07.468Z,756
2017-09-10T15:16:16.500Z,720
2017-09-10T15:17:25.451Z,756
2017-09-10T15:18:34.816Z,888
2017-09-10T15:19:43.838Z,856
2017-09-10T15:20:53.422Z,732
2017-09-10T15:22:02.173Z,668
2017-09-10T15:23:11.178Z,740
2017-09-10T15:24:21.530Z,860
2017-09-10T15:25:31.277Z,864
2017-09-10T15:26:40.246Z,884
2017-09-10T15:27:49.203Z,864
2017-09-10T15:28:58.162Z,812
2017-09-10T15:30:07.443Z,764
2017-09-10T15:31:16.435Z,760
2017-09-10T15:32:25.098Z,768
2017-09-10T15:33:33.752Z,748
2017-09-10T15:34:43.036Z,804
2017-09-10T15:35:52.027Z,824
2017-09-10T15:37:01.652Z,836
2017-09-10T15:38:11.010Z,828
2017-09-10T15:39:20.291Z,872
2017-09-10T15:40:29.248Z,908
2017-09-10T15:41:39.000Z,856
2017-09-10T15:42:47.713Z,780
2017-09-10T15:43:56.701Z,724
2017-09-10T15:45:05.356Z,836
2017-09-10T15:46:14.662Z,892
2017-09-10T15:47:23.638Z,928
2017-09-10T15:48:32.299Z,900
2017-09-10T15:49:41.597Z,824
2017-09-10T15:50:50.251Z,724
2017-09-10T15:51:59.875Z,776
2017-09-10T15:53:09.234Z,804
2017-09-10T15:54:18.211Z,908
2017-09-10T15:55:26.889Z,896
2017-09-10T15:56:35.533Z,828
2017-09-10T15:57:44.858Z,864
2017-09-10T15:58:54.162Z,820